الصفحة الرئيسية
METAR-TAF:

METAR-TAF

مطار :

أوشويا, الأرجنتين

دائرة عرض: 54-48S, خط طول: 068-19W, ارتفاع: 16 متر

مراقبة الطقس الحالي

تاريخ ووقت الإصدار 37 دقيقة قبل الساعة 09:00UTC
ريح 9 عقدة من الغرب/الشمال الغربي
درجة الحرارة 0°درجة مئوية
الرطوبة 100%
ضغط 1024 hPa
الرؤية 10 كم أو أكثر
غيوم قليلة على ارتفاع 3000 قدم

METAR: SAWH 170900Z 29009KT 9999 FEW030 M00/M00 Q1024

زمن: 06:37 (09:37 UTC)

توقعات

تاريخ ووقت الإصدار 10ساعات و 37 دقيقة قبل الساعة 23:00UTC
التوقعات صالحة من17 الساعة 00 UTC إلى 17 الساعة 24 UTC
ريح 15 عقدة من الغرب تتزايد حتى 25 عقدة
الرؤية 10 كم أو أكثر
غيوم متفرقة على ارتفاع 4500 قدم
غيوم متفرقة على ارتفاع 6000 قدم
نظرية الاحتمالات 40% :
مؤقت
من 17 الساعة 06 UTC إلى 17 الساعة 10 UTC
غيوم مفككة على ارتفاع 3000 قدم
ملبد بالغيوم على ارتفاع 4000 قدم
ثلوج خفيفة

TAF: SAWH 162300Z 1700/1724 27015G25KT 9999 SCT045 SCT060 TX02/1718Z TNM04/1711Z PROB40 TEMPO 1706/1710 -SN BKN030 OVC040

أرصاد الطقس والتوقعات من أكثر من 4000 مطار (تقارير الطقس للمطار METAR والتنبؤ بالطقس بالمطارTAF).

المحطات المتاحة هي النقط الصفراء والحمراء على الخريطة.

حرك المؤشر فوق النقطة لمعرفة اسم المحطة.

ثم انقر لمعرفة أرصاد وتوقعات الطقس.

لتغيير الخارطة: اضغط على الأزرار الخضراء مع رمز الصليب الأسود للتكبير. على الزر الأخضر مع شرطة للتصغير، أو على الأسهم الخضراء للخرائط المجاورة.


METAR-TAF: